createdAt,value
2023-02-25T00:00:05.584Z,986
2023-02-25T00:03:05.888Z,986
2023-02-25T00:06:05.530Z,986
2023-02-25T00:09:05.583Z,986
2023-02-25T00:12:06.088Z,986
2023-02-25T00:15:05.607Z,986
2023-02-25T00:18:05.538Z,986
2023-02-25T00:21:05.493Z,986
2023-02-25T00:24:21.364Z,986
2023-02-25T00:27:05.508Z,986
2023-02-25T00:30:05.603Z,986
2023-02-25T00:33:05.595Z,986
2023-02-25T00:36:05.524Z,986
2023-02-25T00:39:05.886Z,986
2023-02-25T00:42:05.634Z,986
2023-02-25T00:45:05.548Z,986
2023-02-25T00:48:05.518Z,986
2023-02-25T00:51:05.512Z,986
2023-02-25T00:54:05.542Z,986
2023-02-25T00:57:05.641Z,986
2023-02-25T01:00:05.603Z,986
2023-02-25T01:03:05.683Z,986
2023-02-25T01:06:05.610Z,986
2023-02-25T01:09:05.606Z,986
2023-02-25T01:12:05.557Z,986
2023-02-25T01:15:05.573Z,986
2023-02-25T01:18:05.528Z,986
2023-02-25T01:21:05.591Z,986
2023-02-25T01:24:05.545Z,986
2023-02-25T01:27:05.575Z,986
2023-02-25T01:30:05.575Z,986
2023-02-25T01:33:05.880Z,986
2023-02-25T01:36:05.547Z,986
2023-02-25T01:39:05.574Z,986
2023-02-25T01:42:05.558Z,987
2023-02-25T01:45:05.528Z,987
2023-02-25T01:48:05.534Z,987
2023-02-25T01:51:05.542Z,987
2023-02-25T01:54:05.544Z,987
2023-02-25T01:57:05.578Z,987
2023-02-25T02:00:05.798Z,987
2023-02-25T02:03:05.538Z,987
2023-02-25T02:06:05.549Z,987
2023-02-25T02:09:05.499Z,987
2023-02-25T02:12:05.546Z,987
2023-02-25T02:15:05.579Z,987
2023-02-25T02:18:05.558Z,987
2023-02-25T02:21:05.532Z,987
2023-02-25T02:24:05.540Z,987
2023-02-25T02:27:05.541Z,987
2023-02-25T02:30:05.631Z,987
2023-02-25T02:33:05.588Z,987
2023-02-25T02:36:05.528Z,987
2023-02-25T02:39:05.562Z,987
2023-02-25T02:42:05.500Z,987
2023-02-25T02:45:05.565Z,987
2023-02-25T02:48:05.597Z,987
2023-02-25T02:51:05.538Z,987
2023-02-25T02:54:05.567Z,987
2023-02-25T02:57:05.492Z,987
2023-02-25T03:00:05.525Z,987
2023-02-25T03:03:05.552Z,987
2023-02-25T03:06:05.489Z,987
2023-02-25T03:09:05.532Z,987
2023-02-25T03:12:05.989Z,987
2023-02-25T03:15:05.566Z,987
2023-02-25T03:18:05.616Z,987
2023-02-25T03:21:05.502Z,987
2023-02-25T03:24:05.489Z,987
2023-02-25T03:27:05.536Z,987
2023-02-25T03:30:05.488Z,987
2023-02-25T03:33:05.534Z,987
2023-02-25T03:36:05.586Z,987
2023-02-25T03:39:05.559Z,987
2023-02-25T03:42:05.531Z,987
2023-02-25T03:45:05.651Z,987
2023-02-25T03:48:05.484Z,988
2023-02-25T03:51:05.610Z,988
2023-02-25T03:54:05.481Z,988
2023-02-25T03:57:05.540Z,988
2023-02-25T04:00:05.536Z,988
2023-02-25T04:03:05.531Z,988
2023-02-25T04:06:05.506Z,988
2023-02-25T04:09:05.524Z,988
2023-02-25T04:12:05.510Z,988
2023-02-25T04:15:05.537Z,988
2023-02-25T04:18:05.482Z,988
2023-02-25T04:21:05.547Z,988
2023-02-25T04:24:05.749Z,988
2023-02-25T04:27:05.528Z,988
2023-02-25T04:30:05.581Z,988
2023-02-25T04:33:05.666Z,988
2023-02-25T04:36:05.515Z,988
2023-02-25T04:39:05.620Z,988
2023-02-25T04:42:05.537Z,988
2023-02-25T04:45:05.562Z,988
2023-02-25T04:48:05.598Z,988
2023-02-25T04:51:05.527Z,988
2023-02-25T04:54:05.506Z,988
2023-02-25T04:57:05.585Z,988
2023-02-25T05:00:05.625Z,989
2023-02-25T05:03:05.546Z,989
2023-02-25T05:06:05.632Z,989
2023-02-25T05:09:05.642Z,989
2023-02-25T05:12:05.542Z,989
2023-02-25T05:15:05.604Z,989
2023-02-25T05:18:05.560Z,989
2023-02-25T05:21:05.540Z,989
2023-02-25T05:24:05.562Z,989
2023-02-25T05:27:05.512Z,989
2023-02-25T05:30:05.933Z,989
2023-02-25T05:33:05.786Z,989
2023-02-25T05:36:05.512Z,989
2023-02-25T05:39:05.496Z,989
2023-02-25T05:42:05.562Z,989
2023-02-25T05:45:05.650Z,989
2023-02-25T05:48:05.549Z,989
2023-02-25T05:51:05.555Z,989
2023-02-25T05:54:05.611Z,989
2023-02-25T05:57:05.604Z,989
2023-02-25T06:00:05.490Z,989
2023-02-25T06:03:05.716Z,989
2023-02-25T06:06:05.550Z,989
2023-02-25T06:09:05.605Z,989
2023-02-25T06:12:05.583Z,989
2023-02-25T06:15:05.524Z,989
2023-02-25T06:18:05.846Z,989
2023-02-25T06:21:05.578Z,989
2023-02-25T06:24:07.810Z,989
2023-02-25T06:27:05.521Z,989
2023-02-25T06:30:05.656Z,989
2023-02-25T06:33:05.588Z,989
2023-02-25T06:36:05.586Z,989
2023-02-25T06:39:05.605Z,990
2023-02-25T06:42:05.590Z,990
2023-02-25T06:45:05.793Z,990
2023-02-25T06:48:05.678Z,990
2023-02-25T06:51:05.546Z,990
2023-02-25T06:54:05.622Z,990
2023-02-25T06:57:05.594Z,990
2023-02-25T07:00:05.792Z,990
2023-02-25T07:03:05.541Z,990
2023-02-25T07:06:05.574Z,990
2023-02-25T07:09:05.607Z,990
2023-02-25T07:12:05.608Z,990
2023-02-25T07:15:05.597Z,990
2023-02-25T07:18:05.793Z,990
2023-02-25T07:21:05.592Z,990
2023-02-25T07:24:05.736Z,990
2023-02-25T07:27:05.519Z,991
2023-02-25T07:30:05.710Z,991
2023-02-25T07:33:08.376Z,991
2023-02-25T07:36:05.610Z,991
2023-02-25T07:39:05.557Z,991
2023-02-25T07:42:05.614Z,991
2023-02-25T07:45:06.878Z,991
2023-02-25T07:48:05.602Z,991
2023-02-25T07:51:05.671Z,991
2023-02-25T07:54:05.623Z,991
2023-02-25T07:57:05.625Z,991
2023-02-25T08:00:06.090Z,991
2023-02-25T08:03:05.586Z,991
2023-02-25T08:06:05.591Z,991
2023-02-25T08:09:05.542Z,991
2023-02-25T08:12:05.520Z,991
2023-02-25T08:15:05.584Z,991
2023-02-25T08:18:05.550Z,991
2023-02-25T08:21:07.693Z,991
2023-02-25T08:24:05.677Z,991
2023-02-25T08:27:05.685Z,991
2023-02-25T08:30:05.602Z,991
2023-02-25T08:33:05.930Z,991
2023-02-25T08:36:05.601Z,991
2023-02-25T08:39:05.659Z,991
2023-02-25T08:42:05.607Z,991
2023-02-25T08:45:05.768Z,991
2023-02-25T08:48:05.631Z,991
2023-02-25T08:51:05.587Z,991
2023-02-25T08:54:05.717Z,991
2023-02-25T08:57:05.706Z,991
2023-02-25T09:00:08.048Z,991
2023-02-25T09:03:05.562Z,991
2023-02-25T09:06:05.586Z,991
2023-02-25T09:09:05.598Z,991
2023-02-25T09:12:05.667Z,991
2023-02-25T09:15:05.686Z,991
2023-02-25T09:18:05.592Z,991
2023-02-25T09:21:05.624Z,991
2023-02-25T09:24:05.556Z,991
2023-02-25T09:27:05.565Z,992
2023-02-25T09:30:05.802Z,992
2023-02-25T09:33:06.269Z,992
2023-02-25T09:36:05.660Z,992
2023-02-25T09:39:05.643Z,992
2023-02-25T09:42:05.590Z,992
2023-02-25T09:45:05.759Z,992
2023-02-25T09:48:06.029Z,992
2023-02-25T09:51:05.580Z,992
2023-02-25T09:54:08.116Z,992
2023-02-25T09:57:05.662Z,992
2023-02-25T10:00:05.677Z,992
2023-02-25T10:03:06.272Z,992
2023-02-25T10:06:05.563Z,992
2023-02-25T10:09:05.578Z,992
2023-02-25T10:12:05.665Z,992
2023-02-25T10:15:05.665Z,992
2023-02-25T10:18:05.617Z,992
2023-02-25T10:21:05.614Z,992
2023-02-25T10:24:05.672Z,992
2023-02-25T10:27:05.637Z,993
2023-02-25T10:30:05.706Z,993
2023-02-25T10:33:05.619Z,993
2023-02-25T10:36:05.745Z,993
2023-02-25T10:39:05.665Z,993
2023-02-25T10:42:05.590Z,993
2023-02-25T10:45:05.680Z,993
2023-02-25T10:48:05.729Z,993
2023-02-25T10:51:05.660Z,993
2023-02-25T10:54:05.674Z,993
2023-02-25T10:57:05.622Z,993
2023-02-25T11:00:05.734Z,993
2023-02-25T11:03:06.080Z,993
2023-02-25T11:06:05.593Z,993
2023-02-25T11:09:05.705Z,993
2023-02-25T11:12:05.565Z,993
2023-02-25T11:15:05.616Z,993
2023-02-25T11:18:05.644Z,993
2023-02-25T11:21:05.923Z,993
2023-02-25T11:24:05.623Z,993
2023-02-25T11:27:05.651Z,993
2023-02-25T11:30:05.731Z,993
2023-02-25T11:33:05.606Z,994
2023-02-25T11:36:05.656Z,993
2023-02-25T11:39:05.671Z,994
2023-02-25T11:42:05.617Z,994
2023-02-25T11:45:05.600Z,994
2023-02-25T11:48:05.609Z,994
2023-02-25T11:51:05.650Z,994
2023-02-25T11:54:05.590Z,993
2023-02-25T11:57:05.619Z,993
2023-02-25T12:00:05.612Z,993
2023-02-25T12:03:05.742Z,993
2023-02-25T12:06:05.853Z,993
2023-02-25T12:09:05.606Z,994
2023-02-25T12:12:05.600Z,994
2023-02-25T12:15:05.620Z,994
2023-02-25T12:18:05.707Z,994
2023-02-25T12:21:05.608Z,994
2023-02-25T12:24:05.655Z,994
2023-02-25T12:27:05.604Z,994
2023-02-25T12:30:05.740Z,994
2023-02-25T12:33:05.600Z,994
2023-02-25T12:36:05.595Z,994
2023-02-25T12:39:05.591Z,994
2023-02-25T12:42:05.648Z,994
2023-02-25T12:45:05.533Z,994
2023-02-25T12:48:05.616Z,994
2023-02-25T12:51:05.575Z,994
2023-02-25T12:54:05.655Z,994
2023-02-25T12:57:05.610Z,994
2023-02-25T13:00:05.810Z,994
2023-02-25T13:03:05.634Z,994
2023-02-25T13:06:05.582Z,994
2023-02-25T13:09:05.997Z,995
2023-02-25T13:12:17.045Z,995
2023-02-25T13:15:05.657Z,994
2023-02-25T13:18:05.596Z,994
2023-02-25T13:21:05.783Z,994
2023-02-25T13:24:05.683Z,994
2023-02-25T13:27:05.577Z,994
2023-02-25T13:30:05.667Z,994
2023-02-25T13:33:05.622Z,994
2023-02-25T13:36:05.597Z,994
2023-02-25T13:39:05.615Z,994
2023-02-25T13:42:05.574Z,994
2023-02-25T13:45:05.543Z,995
2023-02-25T13:48:05.596Z,995
2023-02-25T13:51:05.589Z,995
2023-02-25T13:54:05.642Z,995
2023-02-25T13:57:05.638Z,995
2023-02-25T14:00:05.703Z,995
2023-02-25T14:03:05.636Z,995
2023-02-25T14:06:05.718Z,995
2023-02-25T14:09:05.525Z,995
2023-02-25T14:12:17.713Z,995
2023-02-25T14:15:05.689Z,995
2023-02-25T14:18:05.677Z,995
2023-02-25T14:21:05.613Z,995
2023-02-25T14:24:05.679Z,995
2023-02-25T14:27:05.756Z,995
2023-02-25T14:30:05.627Z,995
2023-02-25T14:33:05.629Z,995
2023-02-25T14:36:05.643Z,995
2023-02-25T14:39:05.575Z,995
2023-02-25T14:42:05.563Z,995
2023-02-25T14:45:05.562Z,995
2023-02-25T14:48:05.594Z,995
2023-02-25T14:51:05.599Z,995
2023-02-25T14:54:05.775Z,995
2023-02-25T14:57:05.550Z,996
2023-02-25T15:00:05.693Z,996
2023-02-25T15:03:05.686Z,996
2023-02-25T15:06:05.596Z,996
2023-02-25T15:09:05.594Z,996
2023-02-25T15:12:05.610Z,996
2023-02-25T15:15:05.539Z,996
2023-02-25T15:18:05.549Z,996
2023-02-25T15:21:05.588Z,996
2023-02-25T15:24:05.599Z,996
2023-02-25T15:27:05.599Z,996
2023-02-25T15:30:05.742Z,996
2023-02-25T15:33:05.534Z,996
2023-02-25T15:36:05.633Z,996
2023-02-25T15:39:05.529Z,996
2023-02-25T15:42:05.612Z,996
2023-02-25T15:45:05.598Z,996
2023-02-25T15:48:05.539Z,996
2023-02-25T15:51:05.618Z,996
2023-02-25T15:54:05.795Z,996
2023-02-25T15:57:05.614Z,996
2023-02-25T16:00:05.852Z,996
2023-02-25T16:03:18.637Z,997
2023-02-25T16:06:05.618Z,997
2023-02-25T16:09:05.634Z,997
2023-02-25T16:12:05.555Z,997
2023-02-25T16:15:05.825Z,997
2023-02-25T16:18:05.667Z,997
2023-02-25T16:21:05.632Z,997
2023-02-25T16:24:05.598Z,997
2023-02-25T16:27:05.574Z,997
2023-02-25T16:30:05.898Z,997
2023-02-25T16:33:05.670Z,997
2023-02-25T16:36:12.655Z,997
2023-02-25T16:39:05.685Z,997
2023-02-25T16:42:05.594Z,997
2023-02-25T16:45:05.687Z,997
2023-02-25T16:48:05.624Z,997
2023-02-25T16:51:07.499Z,997
2023-02-25T16:54:05.540Z,997
2023-02-25T16:57:05.546Z,997
2023-02-25T17:00:05.602Z,998
2023-02-25T17:03:05.582Z,998
2023-02-25T17:06:05.512Z,998
2023-02-25T17:09:05.556Z,998
2023-02-25T17:12:05.533Z,998
2023-02-25T17:15:05.711Z,998
2023-02-25T17:18:05.652Z,998
2023-02-25T17:21:05.509Z,998
2023-02-25T17:24:05.723Z,999
2023-02-25T17:27:05.673Z,998
2023-02-25T17:30:05.629Z,998
2023-02-25T17:33:05.513Z,998
2023-02-25T17:36:05.627Z,998
2023-02-25T17:39:05.492Z,998
2023-02-25T17:42:05.531Z,998
2023-02-25T17:45:05.601Z,998
2023-02-25T17:48:05.508Z,998
2023-02-25T17:51:05.513Z,998
2023-02-25T17:54:05.471Z,998
2023-02-25T17:57:05.604Z,998
2023-02-25T18:00:06.484Z,998
2023-02-25T18:03:05.484Z,998
2023-02-25T18:06:05.563Z,998
2023-02-25T18:09:07.334Z,999
2023-02-25T18:12:05.508Z,999
2023-02-25T18:15:05.507Z,999
2023-02-25T18:18:05.612Z,999
2023-02-25T18:21:05.549Z,999
2023-02-25T18:24:05.603Z,999
2023-02-25T18:27:05.574Z,999
2023-02-25T18:30:05.649Z,999
2023-02-25T18:33:05.521Z,999
2023-02-25T18:36:05.638Z,999
2023-02-25T18:39:05.688Z,999
2023-02-25T18:42:05.592Z,999
2023-02-25T18:45:05.568Z,999
2023-02-25T18:48:05.579Z,999
2023-02-25T18:51:05.586Z,999
2023-02-25T18:54:05.535Z,999
2023-02-25T18:57:05.925Z,999
2023-02-25T19:00:05.692Z,999
2023-02-25T19:03:05.807Z,999
2023-02-25T19:06:05.568Z,999
2023-02-25T19:09:06.382Z,999
2023-02-25T19:12:05.513Z,999
2023-02-25T19:15:05.549Z,999
2023-02-25T19:18:05.559Z,999
2023-02-25T19:21:05.596Z,999
2023-02-25T19:24:05.678Z,999
2023-02-25T19:27:05.571Z,999
2023-02-25T19:30:05.706Z,999
2023-02-25T19:33:09.348Z,999
2023-02-25T19:36:05.570Z,999
2023-02-25T19:39:07.599Z,999
2023-02-25T19:42:05.537Z,999
2023-02-25T19:45:06.046Z,999
2023-02-25T19:48:05.519Z,999
2023-02-25T19:51:05.565Z,999
2023-02-25T19:54:05.553Z,999
2023-02-25T19:57:05.597Z,999
2023-02-25T20:00:06.877Z,999
2023-02-25T20:03:05.592Z,999
2023-02-25T20:06:05.600Z,1000
2023-02-25T20:09:05.533Z,1000
2023-02-25T20:12:05.515Z,1000
2023-02-25T20:15:05.587Z,1000
2023-02-25T20:18:05.522Z,1000
2023-02-25T20:21:05.543Z,1000
2023-02-25T20:24:05.575Z,1000
2023-02-25T20:27:05.555Z,1000
2023-02-25T20:30:05.947Z,1000
2023-02-25T20:33:05.619Z,1000
2023-02-25T20:36:05.547Z,1000
2023-02-25T20:39:05.602Z,1000
2023-02-25T20:42:05.556Z,1000
2023-02-25T20:45:05.561Z,1000
2023-02-25T20:48:05.529Z,1000
2023-02-25T20:51:05.597Z,1000
2023-02-25T20:54:05.486Z,1000
2023-02-25T20:57:05.554Z,1000
2023-02-25T21:00:05.747Z,1000
2023-02-25T21:03:05.584Z,1000
2023-02-25T21:06:05.480Z,1000
2023-02-25T21:09:05.558Z,1000
2023-02-25T21:12:05.490Z,1000
2023-02-25T21:15:05.572Z,1000
2023-02-25T21:18:05.490Z,1000
2023-02-25T21:21:05.507Z,1000
2023-02-25T21:24:05.570Z,1000
2023-02-25T21:27:05.482Z,1000
2023-02-25T21:30:05.561Z,1000
2023-02-25T21:33:07.385Z,1000
2023-02-25T21:36:05.574Z,1000
2023-02-25T21:39:05.494Z,1000
2023-02-25T21:42:05.614Z,1000
2023-02-25T21:45:06.092Z,1001
2023-02-25T21:48:05.541Z,1001
2023-02-25T21:51:05.481Z,1001
2023-02-25T21:54:05.538Z,1001
2023-02-25T21:57:05.595Z,1001
2023-02-25T22:00:05.626Z,1001
2023-02-25T22:03:05.572Z,1001
2023-02-25T22:06:05.549Z,1001
2023-02-25T22:09:05.566Z,1001
2023-02-25T22:12:05.617Z,1001
2023-02-25T22:15:05.621Z,1001
2023-02-25T22:18:05.600Z,1001
2023-02-25T22:21:05.688Z,1001
2023-02-25T22:24:05.556Z,1001
2023-02-25T22:27:05.506Z,1001
2023-02-25T22:30:05.592Z,1001
2023-02-25T22:33:05.500Z,1001
2023-02-25T22:36:05.561Z,1001
2023-02-25T22:39:05.589Z,1001
2023-02-25T22:42:05.578Z,1001
2023-02-25T22:45:05.641Z,1001
2023-02-25T22:48:05.683Z,1001
2023-02-25T22:51:05.557Z,1001
2023-02-25T22:54:05.535Z,1001
2023-02-25T22:57:05.555Z,1001
2023-02-25T23:00:06.132Z,1002
2023-02-25T23:03:05.731Z,1002
2023-02-25T23:06:05.490Z,1002
2023-02-25T23:09:05.512Z,1002
2023-02-25T23:12:05.561Z,1002
2023-02-25T23:15:05.516Z,1002
2023-02-25T23:18:05.532Z,1002
2023-02-25T23:21:05.553Z,1002
2023-02-25T23:24:05.574Z,1002
2023-02-25T23:27:05.632Z,1002
2023-02-25T23:30:05.641Z,1002
2023-02-25T23:33:05.538Z,1002
2023-02-25T23:36:05.578Z,1002
2023-02-25T23:39:05.608Z,1002
2023-02-25T23:42:05.571Z,1002
2023-02-25T23:45:05.641Z,1002
2023-02-25T23:48:05.516Z,1002
2023-02-25T23:51:05.470Z,1002
2023-02-25T23:54:05.573Z,1002
2023-02-25T23:57:05.492Z,1002
